createdAt,value
2022-10-10T00:01:37.281Z,15.55
2022-10-10T00:04:06.787Z,15.55
2022-10-10T00:06:35.260Z,15.59
2022-10-10T00:09:04.472Z,15.62
2022-10-10T00:11:32.993Z,15.65
2022-10-10T00:14:01.191Z,15.72
2022-10-10T00:16:29.289Z,15.82
2022-10-10T00:18:58.783Z,15.80
2022-10-10T00:21:26.802Z,15.76
2022-10-10T00:23:54.886Z,15.75
2022-10-10T00:26:22.980Z,15.78
2022-10-10T00:28:51.200Z,15.80
2022-10-10T00:31:19.440Z,15.79
2022-10-10T00:33:48.092Z,15.80
2022-10-10T00:36:20.371Z,15.81
2022-10-10T00:38:49.319Z,15.90
2022-10-10T00:41:17.524Z,15.89
2022-10-10T00:44:07.790Z,15.88
2022-10-10T00:46:36.110Z,15.86
2022-10-10T00:49:07.471Z,15.90
2022-10-10T00:51:37.915Z,15.89
2022-10-10T00:54:10.533Z,15.83
2022-10-10T00:56:44.998Z,15.79
2022-10-10T00:59:13.473Z,15.77
2022-10-10T01:01:43.077Z,15.79
2022-10-10T01:04:31.799Z,15.87
2022-10-10T01:07:02.641Z,15.86
2022-10-10T01:09:32.027Z,15.84
2022-10-10T01:12:16.480Z,15.87
2022-10-10T01:14:55.962Z,15.86
2022-10-10T01:17:31.346Z,15.87
2022-10-10T01:20:42.871Z,15.89
2022-10-10T01:23:50.931Z,15.85
2022-10-10T01:26:55.939Z,15.89
2022-10-10T01:29:31.058Z,15.85
2022-10-10T01:32:08.901Z,15.86
2022-10-10T01:34:49.037Z,15.88
2022-10-10T01:37:21.611Z,15.85
2022-10-10T01:39:58.803Z,15.89
2022-10-10T01:42:32.960Z,15.89
2022-10-10T01:45:02.406Z,15.88
2022-10-10T01:47:30.492Z,15.88
2022-10-10T01:50:06.078Z,15.89
2022-10-10T01:52:45.273Z,15.88
2022-10-10T01:55:42.353Z,15.89
2022-10-10T01:58:29.169Z,15.87
2022-10-10T02:01:09.060Z,15.90
2022-10-10T02:03:41.427Z,15.86
2022-10-10T02:06:18.423Z,15.87
2022-10-10T02:08:53.186Z,15.87
2022-10-10T02:11:21.852Z,15.80
2022-10-10T02:13:53.651Z,15.83
2022-10-10T02:16:28.489Z,15.84
2022-10-10T02:18:59.723Z,15.75
2022-10-10T02:21:28.785Z,15.75
2022-10-10T02:24:02.292Z,15.74
2022-10-10T02:26:33.116Z,15.71
2022-10-10T02:29:08.451Z,15.73
2022-10-10T02:31:44.885Z,15.74
2022-10-10T02:34:18.693Z,15.70
2022-10-10T02:36:51.912Z,15.67
2022-10-10T02:39:27.069Z,15.69
2022-10-10T02:41:55.122Z,15.65
2022-10-10T02:44:25.265Z,15.67
2022-10-10T02:46:54.735Z,15.64
2022-10-10T02:49:29.266Z,15.61
2022-10-10T02:51:57.579Z,15.61
2022-10-10T02:54:27.469Z,15.62
2022-10-10T02:56:55.772Z,15.61
2022-10-10T02:59:23.817Z,15.60
2022-10-10T03:01:52.270Z,15.56
2022-10-10T03:04:21.651Z,15.53
2022-10-10T03:06:49.706Z,15.51
2022-10-10T03:09:17.854Z,15.53
2022-10-10T03:11:45.947Z,15.54
2022-10-10T03:14:13.950Z,15.50
2022-10-10T03:16:41.947Z,15.49
2022-10-10T03:19:10.029Z,15.47
2022-10-10T03:21:39.461Z,15.49
2022-10-10T03:24:08.120Z,15.50
2022-10-10T03:26:36.179Z,15.45
2022-10-10T03:29:05.179Z,15.42
2022-10-10T03:31:33.635Z,15.43
2022-10-10T03:34:03.184Z,15.48
2022-10-10T03:36:31.723Z,15.48
2022-10-10T03:39:01.274Z,15.50
2022-10-10T03:41:29.889Z,15.49
2022-10-10T03:43:58.043Z,15.47
2022-10-10T03:46:26.210Z,15.45
2022-10-10T03:48:55.854Z,15.45
2022-10-10T03:51:23.991Z,15.52
2022-10-10T03:53:52.122Z,15.49
2022-10-10T03:56:21.491Z,15.46
2022-10-10T03:58:49.543Z,15.44
2022-10-10T04:01:17.781Z,15.42
2022-10-10T04:03:51.291Z,15.45
2022-10-10T04:06:20.208Z,15.45
2022-10-10T04:08:48.678Z,15.44
2022-10-10T04:11:16.697Z,15.42
2022-10-10T04:13:46.099Z,15.49
2022-10-10T04:16:14.180Z,15.52
2022-10-10T04:18:42.350Z,15.48
2022-10-10T04:21:12.310Z,15.51
2022-10-10T04:23:41.474Z,15.55
2022-10-10T04:26:10.022Z,15.55
2022-10-10T04:28:38.182Z,15.54
2022-10-10T04:31:08.115Z,15.53
2022-10-10T04:33:37.501Z,15.53
2022-10-10T04:36:06.157Z,15.51
2022-10-10T04:38:34.239Z,15.54
2022-10-10T04:41:02.721Z,15.57
2022-10-10T04:43:30.911Z,15.53
2022-10-10T04:45:59.503Z,15.47
2022-10-10T04:48:29.217Z,15.46
2022-10-10T04:50:59.935Z,15.43
2022-10-10T04:53:28.488Z,15.38
2022-10-10T04:55:56.532Z,15.36
2022-10-10T04:58:24.578Z,15.35
2022-10-10T05:00:56.661Z,15.42
2022-10-10T05:03:25.859Z,15.39
2022-10-10T05:05:55.257Z,15.33
2022-10-10T05:08:23.280Z,15.31
2022-10-10T05:10:54.349Z,15.29
2022-10-10T05:13:22.541Z,15.33
2022-10-10T05:15:53.114Z,15.34
2022-10-10T05:18:21.948Z,15.39
2022-10-10T05:20:49.990Z,15.41
2022-10-10T05:23:19.357Z,15.40
2022-10-10T05:25:50.605Z,15.45
2022-10-10T05:28:19.126Z,15.36
2022-10-10T05:30:47.246Z,15.36
2022-10-10T05:33:15.269Z,15.37
2022-10-10T05:35:43.381Z,15.34
2022-10-10T05:38:11.485Z,15.31
2022-10-10T05:40:42.545Z,15.34
2022-10-10T05:43:10.985Z,15.38
2022-10-10T05:45:39.197Z,15.38
2022-10-10T05:48:07.205Z,15.37
2022-10-10T05:50:40.479Z,15.40
2022-10-10T05:53:08.560Z,15.39
2022-10-10T05:55:36.693Z,15.39
2022-10-10T05:58:06.585Z,15.39
2022-10-10T06:00:36.472Z,15.41
2022-10-10T06:03:05.148Z,15.41
2022-10-10T06:05:33.375Z,15.39
2022-10-10T06:08:09.388Z,15.39
2022-10-10T06:10:42.402Z,15.37
2022-10-10T06:13:20.334Z,15.41
2022-10-10T06:15:52.983Z,15.40
2022-10-10T06:18:21.062Z,15.39
2022-10-10T06:20:49.095Z,15.45
2022-10-10T06:23:18.131Z,15.51
2022-10-10T06:25:46.214Z,15.51
2022-10-10T06:28:15.549Z,15.52
2022-10-10T06:30:45.029Z,15.54
2022-10-10T06:33:15.042Z,15.57
2022-10-10T06:35:44.369Z,15.60
2022-10-10T06:38:13.877Z,15.60
2022-10-10T06:40:42.595Z,15.67
2022-10-10T06:43:12.524Z,15.71
2022-10-10T06:45:45.021Z,15.74
2022-10-10T06:48:15.471Z,15.74
2022-10-10T06:50:44.027Z,15.77
2022-10-10T06:53:12.078Z,15.84
2022-10-10T06:55:46.422Z,15.81
2022-10-10T06:58:14.961Z,15.84
2022-10-10T07:00:51.193Z,15.88
2022-10-10T07:03:19.918Z,15.92
2022-10-10T07:05:52.046Z,15.87
2022-10-10T07:08:20.284Z,15.91
2022-10-10T07:10:48.662Z,15.96
2022-10-10T07:13:17.341Z,15.94
2022-10-10T07:15:46.735Z,15.99
2022-10-10T07:18:15.167Z,16.01
2022-10-10T07:20:43.268Z,16.04
2022-10-10T07:23:11.480Z,16.11
2022-10-10T07:25:42.780Z,16.18
2022-10-10T07:28:11.781Z,16.27
2022-10-10T07:30:43.334Z,16.34
2022-10-10T07:33:14.007Z,16.41
2022-10-10T07:35:42.696Z,16.55
2022-10-10T07:38:12.806Z,16.69
2022-10-10T07:40:41.537Z,16.70
2022-10-10T07:43:09.588Z,16.82
2022-10-10T07:45:37.651Z,16.92
2022-10-10T07:48:06.452Z,16.97
2022-10-10T07:50:35.959Z,17.01
2022-10-10T07:53:04.026Z,17.05
2022-10-10T07:55:32.073Z,17.04
2022-10-10T07:58:02.932Z,17.07
2022-10-10T08:00:31.306Z,17.10
2022-10-10T08:02:59.279Z,17.09
2022-10-10T08:05:27.434Z,17.19
2022-10-10T08:07:56.845Z,17.17
2022-10-10T08:10:24.946Z,17.20
2022-10-10T08:12:52.974Z,17.23
2022-10-10T08:15:21.283Z,17.27
2022-10-10T08:17:49.586Z,17.32
2022-10-10T08:20:18.070Z,17.34
2022-10-10T08:22:46.134Z,17.39
2022-10-10T08:25:15.944Z,17.48
2022-10-10T08:27:44.121Z,17.64
2022-10-10T08:30:13.429Z,17.71
2022-10-10T08:32:41.429Z,17.75
2022-10-10T08:35:09.954Z,17.81
2022-10-10T08:37:38.002Z,17.86
2022-10-10T08:40:08.021Z,17.90
2022-10-10T08:42:48.918Z,18.01
2022-10-10T08:45:24.700Z,18.08
2022-10-10T08:47:58.002Z,18.20
2022-10-10T08:50:31.754Z,18.32
2022-10-10T08:53:06.565Z,18.42
2022-10-10T08:55:37.955Z,18.60
2022-10-10T08:58:17.502Z,18.76
2022-10-10T09:00:49.478Z,18.90
2022-10-10T09:03:28.184Z,19.03
2022-10-10T09:06:11.591Z,19.01
2022-10-10T09:08:51.846Z,18.98
2022-10-10T09:11:41.114Z,18.89
2022-10-10T09:14:24.551Z,18.87
2022-10-10T09:17:00.155Z,18.98
2022-10-10T09:19:42.003Z,19.13
2022-10-10T09:22:17.046Z,19.29
2022-10-10T09:24:51.237Z,19.38
2022-10-10T09:27:25.814Z,19.50
2022-10-10T09:30:03.075Z,19.60
2022-10-10T09:32:38.651Z,19.70
2022-10-10T09:35:17.550Z,19.75
2022-10-10T09:37:49.833Z,19.70
2022-10-10T09:40:26.486Z,19.65
2022-10-10T09:42:56.554Z,19.69
2022-10-10T09:45:32.901Z,19.76
2022-10-10T09:48:00.934Z,19.70
2022-10-10T09:50:29.138Z,19.75
2022-10-10T09:52:59.201Z,19.79
2022-10-10T09:55:31.798Z,19.89
2022-10-10T09:58:10.909Z,19.97
2022-10-10T10:00:40.427Z,19.93
2022-10-10T10:03:15.021Z,19.95
2022-10-10T10:05:47.565Z,20.00
2022-10-10T10:08:26.917Z,20.03
2022-10-10T10:10:58.464Z,20.11
2022-10-10T10:13:31.423Z,20.18
2022-10-10T10:16:19.397Z,20.16
2022-10-10T10:18:48.860Z,20.15
2022-10-10T10:21:22.266Z,20.23
2022-10-10T10:23:57.691Z,20.28
2022-10-10T10:26:31.871Z,20.32
2022-10-10T10:29:00.092Z,20.27
2022-10-10T10:31:53.489Z,20.52
2022-10-10T10:34:43.207Z,20.51
2022-10-10T10:37:21.804Z,20.56
2022-10-10T10:40:20.157Z,20.64
2022-10-10T10:43:33.939Z,20.81
2022-10-10T10:46:13.346Z,20.88
2022-10-10T10:48:46.819Z,21.00
2022-10-10T10:51:43.928Z,21.10
2022-10-10T10:54:30.398Z,21.25
2022-10-10T10:57:11.160Z,21.34
2022-10-10T11:00:25.706Z,21.54
2022-10-10T11:03:35.102Z,21.64
2022-10-10T11:06:11.910Z,21.70
2022-10-10T11:08:58.579Z,21.78
2022-10-10T11:11:45.491Z,21.98
2022-10-10T11:14:36.693Z,22.10
2022-10-10T11:17:14.339Z,22.16
2022-10-10T11:19:56.459Z,22.24
2022-10-10T11:22:31.517Z,22.31
2022-10-10T11:25:06.435Z,22.35
2022-10-10T11:27:42.649Z,22.48
2022-10-10T11:30:18.069Z,22.53
2022-10-10T11:32:55.303Z,22.59
2022-10-10T11:35:35.770Z,22.67
2022-10-10T11:38:16.717Z,22.71
2022-10-10T11:40:53.971Z,22.69
2022-10-10T11:43:37.557Z,22.74
2022-10-10T11:46:17.415Z,22.73
2022-10-10T11:48:54.226Z,22.72
2022-10-10T11:51:38.167Z,22.76
2022-10-10T11:54:18.554Z,22.79
2022-10-10T11:56:47.651Z,22.82
2022-10-10T11:59:24.998Z,22.79
2022-10-10T12:04:36.892Z,22.83
2022-10-10T12:07:12.642Z,22.89
2022-10-10T12:09:46.150Z,22.89
2022-10-10T12:12:19.444Z,22.89
2022-10-10T12:14:54.154Z,22.89
2022-10-10T12:17:29.665Z,22.83
2022-10-10T12:20:08.779Z,22.74
2022-10-10T12:22:36.933Z,22.71
2022-10-10T12:25:25.767Z,22.66
2022-10-10T12:28:23.393Z,22.67
2022-10-10T12:31:34.070Z,22.65
2022-10-10T12:34:16.030Z,22.50
2022-10-10T12:37:20.277Z,22.41
2022-10-10T12:40:21.317Z,22.40
2022-10-10T12:43:22.621Z,22.32
2022-10-10T12:46:21.618Z,22.29
2022-10-10T12:49:07.698Z,22.32
2022-10-10T12:51:37.574Z,22.33
2022-10-10T12:54:08.374Z,22.26
2022-10-10T12:56:42.093Z,22.30
2022-10-10T12:59:25.164Z,22.32
2022-10-10T13:01:57.599Z,22.29
2022-10-10T13:04:28.371Z,22.35
2022-10-10T13:06:59.871Z,22.34
2022-10-10T13:09:35.840Z,22.25
2022-10-10T13:12:07.978Z,22.26
2022-10-10T13:14:41.554Z,22.31
2022-10-10T13:17:27.490Z,22.25
2022-10-10T13:19:57.764Z,22.21
2022-10-10T13:22:27.113Z,22.18
2022-10-10T13:24:56.945Z,22.24
2022-10-10T13:27:31.082Z,22.25
2022-10-10T13:29:59.767Z,22.29
2022-10-10T13:32:30.397Z,22.26
2022-10-10T13:35:02.107Z,22.26
2022-10-10T13:37:31.420Z,22.25
2022-10-10T13:39:59.893Z,22.31
2022-10-10T13:42:36.328Z,22.29
2022-10-10T13:45:30.888Z,22.33
2022-10-10T13:48:26.186Z,22.27
2022-10-10T13:51:05.068Z,22.24
2022-10-10T13:53:55.167Z,22.33
2022-10-10T13:56:28.696Z,22.22
2022-10-10T13:59:07.669Z,22.17
2022-10-10T14:01:40.159Z,22.10
2022-10-10T14:04:24.582Z,22.22
2022-10-10T14:07:01.885Z,22.08
2022-10-10T14:09:34.555Z,22.00
2022-10-10T14:12:06.313Z,22.08
2022-10-10T14:14:44.119Z,22.16
2022-10-10T14:17:13.414Z,22.11
2022-10-10T14:19:42.095Z,22.10
2022-10-10T14:22:10.160Z,21.98
2022-10-10T14:24:38.511Z,21.84
2022-10-10T14:27:26.748Z,21.93
2022-10-10T14:29:58.570Z,21.92
2022-10-10T14:32:27.015Z,21.78
2022-10-10T14:34:55.153Z,21.71
2022-10-10T14:37:27.912Z,21.71
2022-10-10T14:39:56.882Z,21.74
2022-10-10T14:42:26.201Z,21.73
2022-10-10T14:44:55.632Z,21.74
2022-10-10T14:47:26.040Z,21.77
2022-10-10T14:49:56.545Z,21.73
2022-10-10T14:52:24.734Z,21.70
2022-10-10T14:54:52.861Z,21.71
2022-10-10T14:57:22.311Z,21.66
2022-10-10T14:59:50.486Z,21.62
2022-10-10T15:02:24.045Z,21.70
2022-10-10T15:04:52.371Z,21.69
2022-10-10T15:07:21.341Z,21.71
2022-10-10T15:10:27.576Z,21.68
2022-10-10T15:12:42.387Z,21.76
2022-10-10T15:15:12.726Z,21.81
2022-10-10T15:17:42.621Z,21.76
2022-10-10T15:20:13.430Z,21.72
2022-10-10T15:22:42.294Z,21.74
2022-10-10T15:25:11.213Z,21.71
2022-10-10T15:27:39.760Z,21.68
2022-10-10T15:30:09.810Z,21.68
2022-10-10T15:32:42.970Z,21.68
2022-10-10T15:35:16.486Z,21.65
2022-10-10T15:37:45.688Z,21.65
2022-10-10T15:40:16.403Z,21.57
2022-10-10T15:42:44.824Z,21.60
2022-10-10T15:45:12.893Z,21.61
2022-10-10T15:47:46.615Z,21.67
2022-10-10T15:50:15.084Z,21.63
2022-10-10T15:52:43.178Z,21.66
2022-10-10T15:55:11.581Z,21.69
2022-10-10T15:57:39.655Z,21.67
2022-10-10T16:00:10.636Z,21.67
2022-10-10T16:02:42.935Z,21.65
2022-10-10T16:05:15.863Z,21.66
2022-10-10T16:07:48.084Z,21.66
2022-10-10T16:10:21.356Z,21.59
2022-10-10T16:12:50.472Z,21.55
2022-10-10T16:15:18.715Z,21.50
2022-10-10T16:17:48.208Z,21.44
2022-10-10T16:20:16.451Z,21.36
2022-10-10T16:22:44.499Z,21.33
2022-10-10T16:25:28.088Z,21.30
2022-10-10T16:27:56.258Z,21.24
2022-10-10T16:30:24.477Z,21.21
2022-10-10T16:32:53.955Z,21.20
2022-10-10T16:35:22.187Z,21.15
2022-10-10T16:37:50.217Z,21.13
2022-10-10T16:40:18.597Z,21.09
2022-10-10T16:42:46.714Z,21.04
2022-10-10T16:45:14.760Z,20.96
2022-10-10T16:47:42.802Z,20.91
2022-10-10T16:50:12.917Z,20.88
2022-10-10T16:52:41.571Z,20.81
2022-10-10T16:55:11.245Z,20.76
2022-10-10T16:57:40.051Z,20.74
2022-10-10T17:00:10.414Z,20.71
2022-10-10T17:02:42.021Z,20.61
2022-10-10T17:05:11.836Z,20.47
2022-10-10T17:07:39.868Z,20.30
2022-10-10T17:10:09.215Z,20.20
2022-10-10T17:12:37.302Z,20.16
2022-10-10T17:15:06.729Z,20.13
2022-10-10T17:17:35.788Z,20.10
2022-10-10T17:20:06.556Z,20.09
2022-10-10T17:22:36.922Z,20.06
2022-10-10T17:25:06.187Z,19.98
2022-10-10T17:27:35.023Z,19.90
2022-10-10T17:30:03.441Z,19.89
2022-10-10T17:32:31.819Z,19.82
2022-10-10T17:34:59.905Z,19.79
2022-10-10T17:37:28.321Z,19.75
2022-10-10T17:39:57.723Z,19.72
2022-10-10T17:42:25.792Z,19.64
2022-10-10T17:44:56.740Z,19.63
2022-10-10T17:47:24.789Z,19.58
2022-10-10T17:49:53.114Z,19.56
2022-10-10T17:52:22.140Z,19.56
2022-10-10T17:54:50.365Z,19.31
2022-10-10T17:57:20.210Z,18.85
2022-10-10T17:59:48.256Z,18.55
2022-10-10T18:02:18.817Z,18.62
2022-10-10T18:04:46.989Z,18.59
2022-10-10T18:07:15.816Z,18.59
2022-10-10T18:09:44.080Z,18.67
2022-10-10T18:12:12.361Z,18.68
2022-10-10T18:14:41.727Z,18.73
2022-10-10T18:17:10.210Z,18.65
2022-10-10T18:19:38.300Z,18.63
2022-10-10T18:22:07.062Z,18.62
2022-10-10T18:24:35.221Z,18.54
2022-10-10T18:27:03.487Z,18.49
2022-10-10T18:29:31.587Z,18.55
2022-10-10T18:32:00.971Z,18.56
2022-10-10T18:34:29.147Z,18.56
2022-10-10T18:36:57.201Z,18.54
2022-10-10T18:39:29.423Z,18.45
2022-10-10T18:42:00.452Z,18.27
2022-10-10T18:44:28.768Z,18.30
2022-10-10T18:46:58.252Z,18.33
2022-10-10T18:49:28.231Z,18.30
2022-10-10T18:51:56.541Z,18.26
2022-10-10T18:54:27.129Z,18.24
2022-10-10T18:56:55.146Z,18.21
2022-10-10T18:59:23.479Z,18.23
2022-10-10T19:01:52.425Z,18.21
2022-10-10T19:04:21.559Z,18.16
2022-10-10T19:06:57.116Z,18.17
2022-10-10T19:09:26.759Z,18.20
2022-10-10T19:11:55.398Z,18.21
2022-10-10T19:14:23.516Z,18.19
2022-10-10T19:16:51.833Z,18.15
2022-10-10T19:19:21.136Z,18.26
2022-10-10T19:21:51.332Z,18.29
2022-10-10T19:24:21.271Z,18.30
2022-10-10T19:26:55.794Z,18.33
2022-10-10T19:29:25.322Z,18.35
2022-10-10T19:31:53.611Z,18.31
2022-10-10T19:34:21.694Z,18.26
2022-10-10T19:36:51.117Z,18.16
2022-10-10T19:39:19.485Z,18.10
2022-10-10T19:41:48.032Z,18.10
2022-10-10T19:44:18.457Z,18.12
2022-10-10T19:46:46.492Z,18.13
2022-10-10T19:49:14.765Z,18.12
2022-10-10T19:51:42.769Z,18.12
2022-10-10T19:54:12.379Z,18.06
2022-10-10T19:56:40.381Z,17.91
2022-10-10T19:59:08.908Z,17.88
2022-10-10T20:01:37.424Z,17.98
2022-10-10T20:04:05.807Z,17.99
2022-10-10T20:06:34.005Z,18.02
2022-10-10T20:09:02.225Z,18.04
2022-10-10T20:11:32.582Z,18.07
2022-10-10T20:14:01.787Z,18.05
2022-10-10T20:16:29.961Z,18.10
2022-10-10T20:18:59.931Z,18.04
2022-10-10T20:21:31.531Z,17.95
2022-10-10T20:24:00.711Z,17.92
2022-10-10T20:26:28.971Z,17.93
2022-10-10T20:28:59.571Z,17.93
2022-10-10T20:31:30.986Z,17.94
2022-10-10T20:34:01.668Z,17.86
2022-10-10T20:36:31.962Z,17.93
2022-10-10T20:39:04.719Z,17.92
2022-10-10T20:41:35.967Z,17.85
2022-10-10T20:44:07.686Z,17.83
2022-10-10T20:46:38.343Z,17.76
2022-10-10T20:49:09.463Z,17.74
2022-10-10T20:51:37.561Z,17.71
2022-10-10T20:54:07.145Z,17.76
2022-10-10T20:56:36.663Z,17.76
2022-10-10T20:59:07.237Z,17.76
2022-10-10T21:01:35.835Z,17.74
2022-10-10T21:04:05.032Z,17.78
2022-10-10T21:06:35.397Z,17.73
2022-10-10T21:09:08.635Z,17.68
2022-10-10T21:11:38.962Z,17.69
2022-10-10T21:14:08.810Z,17.67
2022-10-10T21:16:39.741Z,17.68
2022-10-10T21:19:11.011Z,17.63
2022-10-10T21:21:40.408Z,17.66
2022-10-10T21:24:12.021Z,17.67
2022-10-10T21:26:41.758Z,17.72
2022-10-10T21:29:11.170Z,17.72
2022-10-10T21:31:40.739Z,17.74
2022-10-10T21:34:13.223Z,17.73
2022-10-10T21:36:41.686Z,17.73
2022-10-10T21:39:10.042Z,17.64
2022-10-10T21:41:38.421Z,17.67
2022-10-10T21:44:07.063Z,17.69
2022-10-10T21:46:38.030Z,17.72
2022-10-10T21:49:11.190Z,17.73
2022-10-10T21:51:41.646Z,17.72
2022-10-10T21:54:10.517Z,17.72
2022-10-10T21:56:39.669Z,17.75
2022-10-10T21:59:08.361Z,17.76
2022-10-10T22:01:38.117Z,17.69
2022-10-10T22:04:07.417Z,17.66
2022-10-10T22:06:35.889Z,17.61
2022-10-10T22:09:04.754Z,17.62
2022-10-10T22:11:34.231Z,17.61
2022-10-10T22:14:03.103Z,17.60
2022-10-10T22:16:31.913Z,17.54
2022-10-10T22:19:01.595Z,17.54
2022-10-10T22:21:32.465Z,17.53
2022-10-10T22:24:02.524Z,17.42
2022-10-10T22:26:31.683Z,17.46
2022-10-10T22:29:00.203Z,17.52
2022-10-10T22:31:29.297Z,17.58
2022-10-10T22:33:58.142Z,17.53
2022-10-10T22:36:28.006Z,17.51
2022-10-10T22:38:56.045Z,17.50
2022-10-10T22:41:24.152Z,17.48
2022-10-10T22:43:52.437Z,17.30
2022-10-10T22:46:20.469Z,17.20
2022-10-10T22:48:48.628Z,17.21
2022-10-10T22:51:18.798Z,17.35
2022-10-10T22:53:49.336Z,17.38
2022-10-10T22:56:20.819Z,17.42
2022-10-10T22:58:49.977Z,17.37
2022-10-10T23:01:22.318Z,17.44
2022-10-10T23:03:50.966Z,17.47
2022-10-10T23:06:19.048Z,17.48
2022-10-10T23:08:48.442Z,17.56
2022-10-10T23:11:16.869Z,17.55
2022-10-10T23:13:45.025Z,17.54
2022-10-10T23:16:13.157Z,17.52
2022-10-10T23:18:41.269Z,17.52
2022-10-10T23:21:09.375Z,17.52
2022-10-10T23:23:37.548Z,17.56
2022-10-10T23:26:09.039Z,17.55
2022-10-10T23:28:39.284Z,17.51
2022-10-10T23:31:09.855Z,17.55
2022-10-10T23:33:38.267Z,17.44
2022-10-10T23:36:09.390Z,17.43
2022-10-10T23:38:37.637Z,17.48
2022-10-10T23:41:07.579Z,17.52
2022-10-10T23:43:36.387Z,17.51
2022-10-10T23:46:05.107Z,17.48
2022-10-10T23:48:33.476Z,17.37
2022-10-10T23:51:01.557Z,17.30
2022-10-10T23:53:29.995Z,17.27
2022-10-10T23:55:58.055Z,17.26
2022-10-10T23:58:27.682Z,17.18
